sensor_id;sensor_type;location;lat;lon;timestamp;temperature;humidity
48575;DHT22;34352;51.084;3.712;2022-11-02T00:01:40;12.80;60.50
48575;DHT22;34352;51.084;3.712;2022-11-02T00:04:08;12.80;57.60
48575;DHT22;34352;51.084;3.712;2022-11-02T00:06:33;12.70;57.50
48575;DHT22;34352;51.084;3.712;2022-11-02T00:09:02;12.60;59.20
48575;DHT22;34352;51.084;3.712;2022-11-02T00:11:32;12.60;59.60
48575;DHT22;34352;51.084;3.712;2022-11-02T00:13:58;14.50;58.70
48575;DHT22;34352;51.084;3.712;2022-11-02T00:16:23;12.60;56.30
48575;DHT22;34352;51.084;3.712;2022-11-02T00:18:50;12.60;53.70
48575;DHT22;34352;51.084;3.712;2022-11-02T00:21:17;12.60;49.80
48575;DHT22;34352;51.084;3.712;2022-11-02T00:23:44;12.60;49.40
48575;DHT22;34352;51.084;3.712;2022-11-02T00:26:10;12.70;48.10
48575;DHT22;34352;51.084;3.712;2022-11-02T00:28:35;12.70;44.50
48575;DHT22;34352;51.084;3.712;2022-11-02T00:31:01;12.70;37.80
48575;DHT22;34352;51.084;3.712;2022-11-02T00:33:27;12.80;35.40
48575;DHT22;34352;51.084;3.712;2022-11-02T00:35:53;12.70;33.60
48575;DHT22;34352;51.084;3.712;2022-11-02T00:38:19;12.70;33.20
48575;DHT22;34352;51.084;3.712;2022-11-02T00:40:44;12.70;29.50
48575;DHT22;34352;51.084;3.712;2022-11-02T00:43:10;12.70;29.90
48575;DHT22;34352;51.084;3.712;2022-11-02T00:45:36;12.70;28.70
48575;DHT22;34352;51.084;3.712;2022-11-02T00:48:02;12.70;25.00
48575;DHT22;34352;51.084;3.712;2022-11-02T00:50:27;12.60;25.00
48575;DHT22;34352;51.084;3.712;2022-11-02T00:52:53;12.60;24.40
48575;DHT22;34352;51.084;3.712;2022-11-02T00:55:18;12.50;24.00
48575;DHT22;34352;51.084;3.712;2022-11-02T00:57:45;12.40;25.10
48575;DHT22;34352;51.084;3.712;2022-11-02T01:00:10;12.50;23.40
48575;DHT22;34352;51.084;3.712;2022-11-02T01:02:36;12.50;23.80
48575;DHT22;34352;51.084;3.712;2022-11-02T01:05:02;12.50;23.40
48575;DHT22;34352;51.084;3.712;2022-11-02T01:07:28;12.50;27.90
48575;DHT22;34352;51.084;3.712;2022-11-02T01:09:53;12.50;25.10
48575;DHT22;34352;51.084;3.712;2022-11-02T01:12:19;12.40;26.70
48575;DHT22;34352;51.084;3.712;2022-11-02T01:14:48;12.40;25.80
48575;DHT22;34352;51.084;3.712;2022-11-02T01:17:14;12.40;22.80
48575;DHT22;34352;51.084;3.712;2022-11-02T01:19:40;12.40;22.10
48575;DHT22;34352;51.084;3.712;2022-11-02T01:22:06;12.30;22.70
48575;DHT22;34352;51.084;3.712;2022-11-02T01:24:32;12.30;23.00
48575;DHT22;34352;51.084;3.712;2022-11-02T01:26:58;12.30;24.00
48575;DHT22;34352;51.084;3.712;2022-11-02T01:29:24;12.20;24.70
48575;DHT22;34352;51.084;3.712;2022-11-02T01:31:49;12.20;23.40
48575;DHT22;34352;51.084;3.712;2022-11-02T01:34:16;12.20;24.90
48575;DHT22;34352;51.084;3.712;2022-11-02T01:36:45;12.20;25.00
48575;DHT22;34352;51.084;3.712;2022-11-02T01:39:12;12.20;24.10
48575;DHT22;34352;51.084;3.712;2022-11-02T01:41:38;12.30;24.20
48575;DHT22;34352;51.084;3.712;2022-11-02T01:44:04;12.20;22.00
48575;DHT22;34352;51.084;3.712;2022-11-02T01:46:39;12.20;21.40
48575;DHT22;34352;51.084;3.712;2022-11-02T01:49:09;12.10;23.10
48575;DHT22;34352;51.084;3.712;2022-11-02T01:51:42;12.10;23.80
48575;DHT22;34352;51.084;3.712;2022-11-02T01:54:13;12.10;24.30
48575;DHT22;34352;51.084;3.712;2022-11-02T01:56:41;12.10;24.60
48575;DHT22;34352;51.084;3.712;2022-11-02T01:59:11;12.10;25.10
48575;DHT22;34352;51.084;3.712;2022-11-02T02:01:39;12.10;23.40
48575;DHT22;34352;51.084;3.712;2022-11-02T02:04:06;12.10;23.40
48575;DHT22;34352;51.084;3.712;2022-11-02T02:06:32;12.10;24.60
48575;DHT22;34352;51.084;3.712;2022-11-02T02:08:58;12.00;25.20
48575;DHT22;34352;51.084;3.712;2022-11-02T02:13:53;12.00;26.40
48575;DHT22;34352;51.084;3.712;2022-11-02T02:16:21;12.00;24.10
48575;DHT22;34352;51.084;3.712;2022-11-02T02:18:53;12.00;25.70
48575;DHT22;34352;51.084;3.712;2022-11-02T02:31:44;12.20;24.10
48575;DHT22;34352;51.084;3.712;2022-11-02T02:34:23;12.10;26.20
48575;DHT22;34352;51.084;3.712;2022-11-02T02:36:53;12.10;27.00
48575;DHT22;34352;51.084;3.712;2022-11-02T02:39:24;12.10;26.70
48575;DHT22;34352;51.084;3.712;2022-11-02T02:42:06;12.20;27.30
48575;DHT22;34352;51.084;3.712;2022-11-02T02:44:37;12.20;27.00
48575;DHT22;34352;51.084;3.712;2022-11-02T02:47:23;12.20;28.60
48575;DHT22;34352;51.084;3.712;2022-11-02T02:52:43;12.20;32.60
48575;DHT22;34352;51.084;3.712;2022-11-02T02:55:12;12.10;34.60
48575;DHT22;34352;51.084;3.712;2022-11-02T02:57:39;12.10;35.60
48575;DHT22;34352;51.084;3.712;2022-11-02T03:00:15;12.10;35.60
48575;DHT22;34352;51.084;3.712;2022-11-02T03:02:42;12.10;33.10
48575;DHT22;34352;51.084;3.712;2022-11-02T03:05:22;12.20;32.70
48575;DHT22;34352;51.084;3.712;2022-11-02T03:07:47;12.20;31.60
48575;DHT22;34352;51.084;3.712;2022-11-02T03:10:20;12.20;30.60
48575;DHT22;34352;51.084;3.712;2022-11-02T03:15:18;12.20;31.90
48575;DHT22;34352;51.084;3.712;2022-11-02T03:17:45;12.20;32.90
48575;DHT22;34352;51.084;3.712;2022-11-02T03:20:21;12.20;30.80
48575;DHT22;34352;51.084;3.712;2022-11-02T03:23:01;12.10;30.90
48575;DHT22;34352;51.084;3.712;2022-11-02T03:28:15;12.00;36.20
48575;DHT22;34352;51.084;3.712;2022-11-02T03:30:46;11.90;37.30
48575;DHT22;34352;51.084;3.712;2022-11-02T03:38:13;11.80;39.50
48575;DHT22;34352;51.084;3.712;2022-11-02T03:40:43;11.80;39.90
48575;DHT22;34352;51.084;3.712;2022-11-02T03:43:10;11.80;41.30
48575;DHT22;34352;51.084;3.712;2022-11-02T03:45:38;11.70;41.10
48575;DHT22;34352;51.084;3.712;2022-11-02T03:48:06;11.70;43.40
48575;DHT22;34352;51.084;3.712;2022-11-02T03:50:33;11.80;43.20
48575;DHT22;34352;51.084;3.712;2022-11-02T03:53:06;11.70;44.80
48575;DHT22;34352;51.084;3.712;2022-11-02T03:55:40;11.60;46.80
48575;DHT22;34352;51.084;3.712;2022-11-02T03:58:10;11.60;47.00
48575;DHT22;34352;51.084;3.712;2022-11-02T04:00:37;11.60;47.30
48575;DHT22;34352;51.084;3.712;2022-11-02T04:03:08;11.60;47.60
48575;DHT22;34352;51.084;3.712;2022-11-02T04:05:35;11.60;46.50
48575;DHT22;34352;51.084;3.712;2022-11-02T04:08:00;11.60;47.50
48575;DHT22;34352;51.084;3.712;2022-11-02T04:10:45;11.60;48.10
48575;DHT22;34352;51.084;3.712;2022-11-02T04:13:29;11.50;48.90
48575;DHT22;34352;51.084;3.712;2022-11-02T04:16:14;11.50;50.70
48575;DHT22;34352;51.084;3.712;2022-11-02T04:18:39;11.50;51.00
48575;DHT22;34352;51.084;3.712;2022-11-02T04:21:25;11.40;51.10
48575;DHT22;34352;51.084;3.712;2022-11-02T04:23:50;11.50;52.40
48575;DHT22;34352;51.084;3.712;2022-11-02T04:26:35;11.50;50.50
48575;DHT22;34352;51.084;3.712;2022-11-02T04:29:00;11.40;51.70
48575;DHT22;34352;51.084;3.712;2022-11-02T04:31:26;11.40;52.90
48575;DHT22;34352;51.084;3.712;2022-11-02T04:33:52;11.40;52.00
48575;DHT22;34352;51.084;3.712;2022-11-02T04:36:17;11.40;52.10
48575;DHT22;34352;51.084;3.712;2022-11-02T04:38:43;11.40;51.90
48575;DHT22;34352;51.084;3.712;2022-11-02T04:41:13;11.40;51.00
48575;DHT22;34352;51.084;3.712;2022-11-02T04:43:58;11.30;52.90
48575;DHT22;34352;51.084;3.712;2022-11-02T04:46:26;11.30;52.10
48575;DHT22;34352;51.084;3.712;2022-11-02T04:48:52;11.30;51.70
48575;DHT22;34352;51.084;3.712;2022-11-02T04:53:50;11.40;49.50
48575;DHT22;34352;51.084;3.712;2022-11-02T04:56:17;11.30;48.80
48575;DHT22;34352;51.084;3.712;2022-11-02T04:58:46;11.30;50.40
48575;DHT22;34352;51.084;3.712;2022-11-02T05:01:13;11.30;49.20
48575;DHT22;34352;51.084;3.712;2022-11-02T05:03:39;11.20;52.10
48575;DHT22;34352;51.084;3.712;2022-11-02T05:06:05;11.30;51.60
48575;DHT22;34352;51.084;3.712;2022-11-02T05:08:31;11.20;51.00
48575;DHT22;34352;51.084;3.712;2022-11-02T05:10:57;11.20;52.40
48575;DHT22;34352;51.084;3.712;2022-11-02T05:13:23;11.20;52.00
48575;DHT22;34352;51.084;3.712;2022-11-02T05:15:49;11.20;52.30
48575;DHT22;34352;51.084;3.712;2022-11-02T05:18:15;11.20;52.50
48575;DHT22;34352;51.084;3.712;2022-11-02T05:20:40;11.20;51.70
48575;DHT22;34352;51.084;3.712;2022-11-02T05:23:06;11.10;52.90
48575;DHT22;34352;51.084;3.712;2022-11-02T05:25:32;11.10;52.70
48575;DHT22;34352;51.084;3.712;2022-11-02T05:27:58;11.20;52.30
48575;DHT22;34352;51.084;3.712;2022-11-02T05:30:23;11.10;52.30
48575;DHT22;34352;51.084;3.712;2022-11-02T05:32:49;11.10;53.30
48575;DHT22;34352;51.084;3.712;2022-11-02T05:35:15;11.10;52.00
48575;DHT22;34352;51.084;3.712;2022-11-02T05:37:40;11.20;49.80
48575;DHT22;34352;51.084;3.712;2022-11-02T05:40:06;11.10;50.30
48575;DHT22;34352;51.084;3.712;2022-11-02T05:42:33;11.00;52.80
48575;DHT22;34352;51.084;3.712;2022-11-02T05:44:59;11.00;52.10
48575;DHT22;34352;51.084;3.712;2022-11-02T05:47:24;11.00;50.20
48575;DHT22;34352;51.084;3.712;2022-11-02T05:49:50;11.00;48.90
48575;DHT22;34352;51.084;3.712;2022-11-02T05:52:15;11.00;49.10
48575;DHT22;34352;51.084;3.712;2022-11-02T05:54:42;11.00;48.60
48575;DHT22;34352;51.084;3.712;2022-11-02T05:57:07;11.00;49.80
48575;DHT22;34352;51.084;3.712;2022-11-02T05:59:33;11.00;49.60
48575;DHT22;34352;51.084;3.712;2022-11-02T06:01:59;10.90;50.90
48575;DHT22;34352;51.084;3.712;2022-11-02T06:04:24;10.80;51.90
48575;DHT22;34352;51.084;3.712;2022-11-02T06:06:50;10.80;52.20
48575;DHT22;34352;51.084;3.712;2022-11-02T06:09:15;11.40;51.90
48575;DHT22;34352;51.084;3.712;2022-11-02T06:11:41;10.80;50.40
48575;DHT22;34352;51.084;3.712;2022-11-02T06:14:06;10.80;50.00
48575;DHT22;34352;51.084;3.712;2022-11-02T06:16:32;10.80;51.40
48575;DHT22;34352;51.084;3.712;2022-11-02T06:18:59;10.70;52.30
48575;DHT22;34352;51.084;3.712;2022-11-02T06:21:25;10.70;51.80
48575;DHT22;34352;51.084;3.712;2022-11-02T06:23:51;10.70;51.30
48575;DHT22;34352;51.084;3.712;2022-11-02T06:26:16;10.70;50.70
48575;DHT22;34352;51.084;3.712;2022-11-02T06:28:42;10.70;51.50
48575;DHT22;34352;51.084;3.712;2022-11-02T06:31:08;10.60;54.00
48575;DHT22;34352;51.084;3.712;2022-11-02T06:33:36;10.70;52.60
48575;DHT22;34352;51.084;3.712;2022-11-02T06:36:02;10.70;53.40
48575;DHT22;34352;51.084;3.712;2022-11-02T06:38:27;10.60;55.50
48575;DHT22;34352;51.084;3.712;2022-11-02T06:40:57;10.60;56.90
48575;DHT22;34352;51.084;3.712;2022-11-02T06:43:23;10.60;56.90
48575;DHT22;34352;51.084;3.712;2022-11-02T06:45:49;10.60;58.20
48575;DHT22;34352;51.084;3.712;2022-11-02T06:48:15;10.60;60.20
48575;DHT22;34352;51.084;3.712;2022-11-02T06:50:40;10.70;59.60
48575;DHT22;34352;51.084;3.712;2022-11-02T06:53:06;10.60;60.60
48575;DHT22;34352;51.084;3.712;2022-11-02T06:55:32;10.60;63.60
48575;DHT22;34352;51.084;3.712;2022-11-02T06:57:57;10.50;64.20
48575;DHT22;34352;51.084;3.712;2022-11-02T07:00:24;10.60;64.80
48575;DHT22;34352;51.084;3.712;2022-11-02T07:03:03;10.60;65.50
48575;DHT22;34352;51.084;3.712;2022-11-02T07:05:30;10.60;66.10
48575;DHT22;34352;51.084;3.712;2022-11-02T07:07:55;10.70;64.80
48575;DHT22;34352;51.084;3.712;2022-11-02T07:10:21;10.70;64.40
48575;DHT22;34352;51.084;3.712;2022-11-02T07:12:48;10.80;64.40
48575;DHT22;34352;51.084;3.712;2022-11-02T07:15:15;10.70;65.10
48575;DHT22;34352;51.084;3.712;2022-11-02T07:17:41;10.70;65.70
48575;DHT22;34352;51.084;3.712;2022-11-02T07:20:08;10.70;65.50
48575;DHT22;34352;51.084;3.712;2022-11-02T07:22:37;10.80;63.80
48575;DHT22;34352;51.084;3.712;2022-11-02T07:25:02;10.90;64.20
48575;DHT22;34352;51.084;3.712;2022-11-02T07:27:28;10.80;64.20
48575;DHT22;34352;51.084;3.712;2022-11-02T07:29:53;10.90;62.80
48575;DHT22;34352;51.084;3.712;2022-11-02T07:32:19;11.00;59.40
48575;DHT22;34352;51.084;3.712;2022-11-02T07:34:45;11.00;60.40
48575;DHT22;34352;51.084;3.712;2022-11-02T07:37:10;11.10;58.60
48575;DHT22;34352;51.084;3.712;2022-11-02T07:39:37;11.20;57.80
48575;DHT22;34352;51.084;3.712;2022-11-02T07:42:02;11.30;57.90
48575;DHT22;34352;51.084;3.712;2022-11-02T07:44:28;11.50;56.80
48575;DHT22;34352;51.084;3.712;2022-11-02T07:46:55;12.00;53.00
48575;DHT22;34352;51.084;3.712;2022-11-02T07:49:21;12.50;38.00
48575;DHT22;34352;51.084;3.712;2022-11-02T07:51:46;13.00;28.70
48575;DHT22;34352;51.084;3.712;2022-11-02T07:54:11;13.50;15.40
48575;DHT22;34352;51.084;3.712;2022-11-02T07:56:37;14.00;9.30
48575;DHT22;34352;51.084;3.712;2022-11-02T07:59:03;15.30;1.00
48575;DHT22;34352;51.084;3.712;2022-11-02T08:01:28;15.10;1.00
48575;DHT22;34352;51.084;3.712;2022-11-02T08:03:53;15.50;1.00
48575;DHT22;34352;51.084;3.712;2022-11-02T08:06:20;15.80;1.00
48575;DHT22;34352;51.084;3.712;2022-11-02T08:08:46;15.90;1.00
48575;DHT22;34352;51.084;3.712;2022-11-02T08:11:12;16.20;1.00
48575;DHT22;34352;51.084;3.712;2022-11-02T08:13:38;16.50;1.00
48575;DHT22;34352;51.084;3.712;2022-11-02T08:16:03;17.00;1.00
48575;DHT22;34352;51.084;3.712;2022-11-02T08:18:30;17.40;1.00
48575;DHT22;34352;51.084;3.712;2022-11-02T08:20:57;17.80;99.90
48575;DHT22;34352;51.084;3.712;2022-11-02T08:23:23;17.40;99.90
48575;DHT22;34352;51.084;3.712;2022-11-02T08:25:49;17.50;99.90
48575;DHT22;34352;51.084;3.712;2022-11-02T08:28:17;17.50;99.90
48575;DHT22;34352;51.084;3.712;2022-11-02T08:30:42;17.60;99.90
48575;DHT22;34352;51.084;3.712;2022-11-02T08:33:12;18.10;99.90
48575;DHT22;34352;51.084;3.712;2022-11-02T08:35:40;18.10;99.90
48575;DHT22;34352;51.084;3.712;2022-11-02T08:38:05;18.20;99.90
48575;DHT22;34352;51.084;3.712;2022-11-02T08:40:31;18.10;99.90
48575;DHT22;34352;51.084;3.712;2022-11-02T08:42:59;18.70;99.90
48575;DHT22;34352;51.084;3.712;2022-11-02T08:45:26;19.00;99.90
48575;DHT22;34352;51.084;3.712;2022-11-02T08:47:52;19.00;99.90
48575;DHT22;34352;51.084;3.712;2022-11-02T08:50:17;19.10;99.90
48575;DHT22;34352;51.084;3.712;2022-11-02T08:52:43;19.70;99.90
48575;DHT22;34352;51.084;3.712;2022-11-02T08:55:08;20.20;99.90
48575;DHT22;34352;51.084;3.712;2022-11-02T08:57:50;20.40;99.90
48575;DHT22;34352;51.084;3.712;2022-11-02T09:00:16;20.10;99.90
48575;DHT22;34352;51.084;3.712;2022-11-02T09:02:42;20.10;99.90
48575;DHT22;34352;51.084;3.712;2022-11-02T09:05:08;20.00;99.90
48575;DHT22;34352;51.084;3.712;2022-11-02T09:07:34;19.60;99.90
48575;DHT22;34352;51.084;3.712;2022-11-02T09:10:00;20.10;99.90
48575;DHT22;34352;51.084;3.712;2022-11-02T09:12:25;19.80;99.90
48575;DHT22;34352;51.084;3.712;2022-11-02T09:14:52;20.30;99.90
48575;DHT22;34352;51.084;3.712;2022-11-02T09:17:17;20.40;99.90
48575;DHT22;34352;51.084;3.712;2022-11-02T09:19:43;20.30;99.90
48575;DHT22;34352;51.084;3.712;2022-11-02T09:22:09;21.00;99.90
48575;DHT22;34352;51.084;3.712;2022-11-02T09:24:34;21.10;99.90
48575;DHT22;34352;51.084;3.712;2022-11-02T09:27:00;20.60;99.90
48575;DHT22;34352;51.084;3.712;2022-11-02T09:29:26;20.50;99.90
48575;DHT22;34352;51.084;3.712;2022-11-02T09:31:51;20.10;99.90
48575;DHT22;34352;51.084;3.712;2022-11-02T09:34:18;20.40;99.90
48575;DHT22;34352;51.084;3.712;2022-11-02T09:36:44;20.70;99.90
48575;DHT22;34352;51.084;3.712;2022-11-02T09:39:09;20.70;99.90
48575;DHT22;34352;51.084;3.712;2022-11-02T09:41:40;20.80;99.90
48575;DHT22;34352;51.084;3.712;2022-11-02T09:44:12;20.70;99.90
48575;DHT22;34352;51.084;3.712;2022-11-02T09:46:41;20.00;99.90
48575;DHT22;34352;51.084;3.712;2022-11-02T09:49:10;20.60;99.90
48575;DHT22;34352;51.084;3.712;2022-11-02T09:51:36;21.00;99.90
48575;DHT22;34352;51.084;3.712;2022-11-02T09:56:37;21.60;99.90
48575;DHT22;34352;51.084;3.712;2022-11-02T09:59:05;20.80;99.90
48575;DHT22;34352;51.084;3.712;2022-11-02T10:04:25;20.50;99.90
48575;DHT22;34352;51.084;3.712;2022-11-02T10:09:31;20.80;99.90
48575;DHT22;34352;51.084;3.712;2022-11-02T10:12:13;20.50;99.90
48575;DHT22;34352;51.084;3.712;2022-11-02T10:14:41;20.10;99.90
48575;DHT22;34352;51.084;3.712;2022-11-02T10:17:32;19.90;99.90
48575;DHT22;34352;51.084;3.712;2022-11-02T10:19:56;19.50;99.90
48575;DHT22;34352;51.084;3.712;2022-11-02T10:22:26;18.80;99.90
48575;DHT22;34352;51.084;3.712;2022-11-02T10:24:52;18.90;99.90
48575;DHT22;34352;51.084;3.712;2022-11-02T10:27:20;19.50;99.90
48575;DHT22;34352;51.084;3.712;2022-11-02T10:32:16;21.30;99.90
48575;DHT22;34352;51.084;3.712;2022-11-02T10:34:42;21.00;99.90
48575;DHT22;34352;51.084;3.712;2022-11-02T10:47:23;20.70;99.90
48575;DHT22;34352;51.084;3.712;2022-11-02T10:52:24;20.80;99.90
48575;DHT22;34352;51.084;3.712;2022-11-02T10:54:52;21.90;99.90
48575;DHT22;34352;51.084;3.712;2022-11-02T10:57:19;23.10;99.90
48575;DHT22;34352;51.084;3.712;2022-11-02T11:02:31;24.20;1.00
48575;DHT22;34352;51.084;3.712;2022-11-02T11:05:07;24.20;1.00
48575;DHT22;34352;51.084;3.712;2022-11-02T11:07:35;23.60;1.00
48575;DHT22;34352;51.084;3.712;2022-11-02T11:10:01;24.30;1.00
48575;DHT22;34352;51.084;3.712;2022-11-02T11:12:30;24.20;1.00
48575;DHT22;34352;51.084;3.712;2022-11-02T11:15:00;24.50;1.00
48575;DHT22;34352;51.084;3.712;2022-11-02T11:17:27;25.00;1.00
48575;DHT22;34352;51.084;3.712;2022-11-02T11:19:53;25.10;1.00
48575;DHT22;34352;51.084;3.712;2022-11-02T11:22:35;23.90;1.00
48575;DHT22;34352;51.084;3.712;2022-11-02T11:28:21;23.30;1.00
48575;DHT22;34352;51.084;3.712;2022-11-02T11:30:49;23.00;1.00
48575;DHT22;34352;51.084;3.712;2022-11-02T11:33:25;23.10;1.00
48575;DHT22;34352;51.084;3.712;2022-11-02T11:35:50;23.90;1.00
48575;DHT22;34352;51.084;3.712;2022-11-02T11:38:20;23.10;1.00
48575;DHT22;34352;51.084;3.712;2022-11-02T11:40:47;22.60;99.90
48575;DHT22;34352;51.084;3.712;2022-11-02T11:43:18;22.70;99.90
48575;DHT22;34352;51.084;3.712;2022-11-02T11:45:54;22.20;99.90
48575;DHT22;34352;51.084;3.712;2022-11-02T11:51:16;21.90;99.90
48575;DHT22;34352;51.084;3.712;2022-11-02T11:54:02;22.00;99.90
48575;DHT22;34352;51.084;3.712;2022-11-02T11:56:31;21.60;99.90
48575;DHT22;34352;51.084;3.712;2022-11-02T11:58:58;21.50;99.90
48575;DHT22;34352;51.084;3.712;2022-11-02T12:01:24;21.20;99.90
48575;DHT22;34352;51.084;3.712;2022-11-02T12:03:50;20.80;99.90
48575;DHT22;34352;51.084;3.712;2022-11-02T12:11:45;21.20;99.90
48575;DHT22;34352;51.084;3.712;2022-11-02T12:24:37;20.20;99.90
48575;DHT22;34352;51.084;3.712;2022-11-02T12:32:08;19.90;99.90
48575;DHT22;34352;51.084;3.712;2022-11-02T12:37:19;20.00;99.90
48575;DHT22;34352;51.084;3.712;2022-11-02T12:42:27;20.60;99.90
48575;DHT22;34352;51.084;3.712;2022-11-02T12:47:59;21.30;99.90
48575;DHT22;34352;51.084;3.712;2022-11-02T12:55:31;21.00;99.90
48575;DHT22;34352;51.084;3.712;2022-11-02T12:58:05;20.50;99.90
48575;DHT22;34352;51.084;3.712;2022-11-02T13:00:32;20.60;99.90
48575;DHT22;34352;51.084;3.712;2022-11-02T13:05:44;21.20;99.90
48575;DHT22;34352;51.084;3.712;2022-11-02T13:08:13;21.20;99.90
48575;DHT22;34352;51.084;3.712;2022-11-02T13:10:51;20.50;99.90
48575;DHT22;34352;51.084;3.712;2022-11-02T13:13:28;20.10;99.90
48575;DHT22;34352;51.084;3.712;2022-11-02T13:15:55;19.60;99.90
48575;DHT22;34352;51.084;3.712;2022-11-02T13:18:25;19.80;99.90
48575;DHT22;34352;51.084;3.712;2022-11-02T13:20:56;19.30;99.90
48575;DHT22;34352;51.084;3.712;2022-11-02T13:23:38;19.10;99.90
48575;DHT22;34352;51.084;3.712;2022-11-02T13:26:10;19.10;99.90
48575;DHT22;34352;51.084;3.712;2022-11-02T13:28:41;18.90;99.90
48575;DHT22;34352;51.084;3.712;2022-11-02T13:31:14;19.20;99.90
48575;DHT22;34352;51.084;3.712;2022-11-02T13:33:48;19.70;99.90
48575;DHT22;34352;51.084;3.712;2022-11-02T13:36:14;20.00;99.90
48575;DHT22;34352;51.084;3.712;2022-11-02T13:38:43;19.60;99.90
48575;DHT22;34352;51.084;3.712;2022-11-02T13:49:13;18.40;99.90
48575;DHT22;34352;51.084;3.712;2022-11-02T13:51:42;18.10;99.90
48575;DHT22;34352;51.084;3.712;2022-11-02T13:54:13;18.30;99.90
48575;DHT22;34352;51.084;3.712;2022-11-02T13:56:40;18.20;99.90
48575;DHT22;34352;51.084;3.712;2022-11-02T13:59:07;17.70;99.90
48575;DHT22;34352;51.084;3.712;2022-11-02T14:01:34;17.50;99.90
48575;DHT22;34352;51.084;3.712;2022-11-02T14:04:08;17.20;99.90
48575;DHT22;34352;51.084;3.712;2022-11-02T14:06:48;17.10;99.90
48575;DHT22;34352;51.084;3.712;2022-11-02T14:09:20;16.80;99.90
48575;DHT22;34352;51.084;3.712;2022-11-02T14:11:47;16.90;99.90
48575;DHT22;34352;51.084;3.712;2022-11-02T14:14:23;17.00;99.90
48575;DHT22;34352;51.084;3.712;2022-11-02T14:21:41;16.80;99.90
48575;DHT22;34352;51.084;3.712;2022-11-02T14:26:52;16.50;99.90
48575;DHT22;34352;51.084;3.712;2022-11-02T14:32:10;16.50;99.90
48575;DHT22;34352;51.084;3.712;2022-11-02T14:34:50;16.60;99.90
48575;DHT22;34352;51.084;3.712;2022-11-02T14:42:35;17.10;99.90
48575;DHT22;34352;51.084;3.712;2022-11-02T14:47:39;16.60;99.90
48575;DHT22;34352;51.084;3.712;2022-11-02T14:52:37;16.70;99.90
48575;DHT22;34352;51.084;3.712;2022-11-02T14:55:08;17.00;99.90
48575;DHT22;34352;51.084;3.712;2022-11-02T14:58:17;17.00;99.90
48575;DHT22;34352;51.084;3.712;2022-11-02T15:03:25;17.00;99.90
48575;DHT22;34352;51.084;3.712;2022-11-02T15:06:13;16.80;99.90
48575;DHT22;34352;51.084;3.712;2022-11-02T15:08:52;17.10;99.90
48575;DHT22;34352;51.084;3.712;2022-11-02T15:14:51;16.70;99.90
48575;DHT22;34352;51.084;3.712;2022-11-02T15:16:50;16.10;99.90
48575;DHT22;34352;51.084;3.712;2022-11-02T15:24:45;15.90;99.90
48575;DHT22;34352;51.084;3.712;2022-11-02T15:27:11;15.70;99.90
48575;DHT22;34352;51.084;3.712;2022-11-02T15:29:41;15.60;99.90
48575;DHT22;34352;51.084;3.712;2022-11-02T15:32:11;15.50;99.90
48575;DHT22;34352;51.084;3.712;2022-11-02T15:34:43;15.60;99.90
48575;DHT22;34352;51.084;3.712;2022-11-02T15:37:26;15.30;99.90
48575;DHT22;34352;51.084;3.712;2022-11-02T15:39:54;15.10;99.90
48575;DHT22;34352;51.084;3.712;2022-11-02T15:42:25;15.00;99.90
48575;DHT22;34352;51.084;3.712;2022-11-02T15:45:07;15.10;99.90
48575;DHT22;34352;51.084;3.712;2022-11-02T15:50:37;15.20;99.90
48575;DHT22;34352;51.084;3.712;2022-11-02T15:53:11;15.20;99.90
48575;DHT22;34352;51.084;3.712;2022-11-02T16:03:35;14.80;99.90
48575;DHT22;34352;51.084;3.712;2022-11-02T16:06:00;14.80;99.90
48575;DHT22;34352;51.084;3.712;2022-11-02T16:08:30;14.80;99.90
48575;DHT22;34352;51.084;3.712;2022-11-02T16:11:04;14.70;99.90
48575;DHT22;34352;51.084;3.712;2022-11-02T16:13:32;14.70;99.90
48575;DHT22;34352;51.084;3.712;2022-11-02T16:16:03;14.50;99.90
48575;DHT22;34352;51.084;3.712;2022-11-02T16:18:34;14.40;99.90
48575;DHT22;34352;51.084;3.712;2022-11-02T16:21:04;14.40;99.90
48575;DHT22;34352;51.084;3.712;2022-11-02T16:23:37;14.30;99.90
48575;DHT22;34352;51.084;3.712;2022-11-02T16:26:04;14.40;99.90
48575;DHT22;34352;51.084;3.712;2022-11-02T16:28:37;14.40;99.90
48575;DHT22;34352;51.084;3.712;2022-11-02T16:33:38;14.30;99.90
48575;DHT22;34352;51.084;3.712;2022-11-02T16:36:05;14.30;99.90
48575;DHT22;34352;51.084;3.712;2022-11-02T16:38:31;14.20;99.90
48575;DHT22;34352;51.084;3.712;2022-11-02T16:40:58;14.10;99.90
48575;DHT22;34352;51.084;3.712;2022-11-02T16:43:24;14.40;99.90
48575;DHT22;34352;51.084;3.712;2022-11-02T16:45:50;14.10;99.90
48575;DHT22;34352;51.084;3.712;2022-11-02T16:48:29;14.10;99.90
48575;DHT22;34352;51.084;3.712;2022-11-02T16:53:32;13.90;99.90
48575;DHT22;34352;51.084;3.712;2022-11-02T16:56:43;13.90;99.90
48575;DHT22;34352;51.084;3.712;2022-11-02T16:58:54;14.00;99.90
48575;DHT22;34352;51.084;3.712;2022-11-02T17:01:24;13.90;99.90
48575;DHT22;34352;51.084;3.712;2022-11-02T17:03:50;13.80;99.90
48575;DHT22;34352;51.084;3.712;2022-11-02T17:06:16;14.00;99.90
48575;DHT22;34352;51.084;3.712;2022-11-02T17:08:43;13.80;99.90
48575;DHT22;34352;51.084;3.712;2022-11-02T17:11:12;14.00;99.90
48575;DHT22;34352;51.084;3.712;2022-11-02T17:13:48;13.80;99.90
48575;DHT22;34352;51.084;3.712;2022-11-02T17:16:14;13.80;99.90
48575;DHT22;34352;51.084;3.712;2022-11-02T17:18:40;13.70;99.90
48575;DHT22;34352;51.084;3.712;2022-11-02T17:23:38;13.60;99.90
48575;DHT22;34352;51.084;3.712;2022-11-02T17:28:52;13.60;99.90
48575;DHT22;34352;51.084;3.712;2022-11-02T17:31:21;13.60;99.90
48575;DHT22;34352;51.084;3.712;2022-11-02T17:33:48;13.60;99.90
48575;DHT22;34352;51.084;3.712;2022-11-02T17:36:13;13.40;99.90
48575;DHT22;34352;51.084;3.712;2022-11-02T17:38:39;13.50;99.90
48575;DHT22;34352;51.084;3.712;2022-11-02T17:41:05;13.40;99.90
48575;DHT22;34352;51.084;3.712;2022-11-02T17:43:49;13.50;99.90
48575;DHT22;34352;51.084;3.712;2022-11-02T17:46:15;13.50;99.90
48575;DHT22;34352;51.084;3.712;2022-11-02T17:48:40;13.50;99.90
48575;DHT22;34352;51.084;3.712;2022-11-02T17:51:09;13.50;99.90
48575;DHT22;34352;51.084;3.712;2022-11-02T17:53:39;13.50;99.90
48575;DHT22;34352;51.084;3.712;2022-11-02T17:56:05;13.40;99.90
48575;DHT22;34352;51.084;3.712;2022-11-02T17:58:53;13.40;99.90
48575;DHT22;34352;51.084;3.712;2022-11-02T18:01:18;13.50;99.90
48575;DHT22;34352;51.084;3.712;2022-11-02T18:03:44;13.50;99.90
48575;DHT22;34352;51.084;3.712;2022-11-02T18:06:09;13.60;99.90
48575;DHT22;34352;51.084;3.712;2022-11-02T18:08:35;13.50;99.90
48575;DHT22;34352;51.084;3.712;2022-11-02T18:11:21;13.40;99.90
48575;DHT22;34352;51.084;3.712;2022-11-02T18:13:46;14.60;99.90
48575;DHT22;34352;51.084;3.712;2022-11-02T18:16:12;13.40;99.90
48575;DHT22;34352;51.084;3.712;2022-11-02T18:18:41;13.40;99.90
48575;DHT22;34352;51.084;3.712;2022-11-02T18:21:10;13.50;99.90